Time;durP1;ratioP1;P1;durP2;ratioP2;P2;SDS_P1;SDS_P2;PMS_P1;PMS_P2;Temp;Humidity;BMP_temperature;BMP_pressure;BME280_temperature;BME280_humidity;BME280_pressure;Samples;Min_cycle;Max_cycle;Signal;HPM_P1;HPM_P2
2022/07/19 00:02:04;;;;;;;2.28;1.83;;;17.70;72.10;;;;;;5088658;28;20032;-80
2022/07/19 00:04:31;;;;;;;4.32;2.00;;;17.70;72.20;;;;;;5089644;28;20395;-81
2022/07/19 00:06:57;;;;;;;3.15;2.00;;;17.60;72.50;;;;;;5072737;28;20134;-79
2022/07/19 00:09:24;;;;;;;2.97;1.80;;;17.60;72.50;;;;;;5091386;28;20111;-80
2022/07/19 00:11:49;;;;;;;5.43;2.28;;;17.50;72.70;;;;;;5089679;28;20093;-80
2022/07/19 00:14:15;;;;;;;3.60;1.83;;;17.50;72.80;;;;;;5089796;28;20141;-80
2022/07/19 00:16:41;;;;;;;2.75;1.70;;;17.50;72.70;;;;;;5089646;28;20034;-80
2022/07/19 00:19:07;;;;;;;4.00;2.20;;;17.50;72.50;;;;;;5072994;28;20028;-80
2022/07/19 00:21:33;;;;;;;3.00;2.30;;;17.40;72.40;;;;;;5072782;28;20032;-81
2022/07/19 00:24:00;;;;;;;1.95;1.75;;;17.40;72.40;;;;;;5084241;28;20119;-80
2022/07/19 00:26:27;;;;;;;3.40;2.20;;;17.40;72.40;;;;;;5076788;28;20032;-80
2022/07/19 00:28:54;;;;;;;3.67;2.28;;;17.40;73.30;;;;;;5093803;28;20036;-81
2022/07/19 00:31:25;;;;;;;3.03;2.10;;;17.40;74.10;;;;;;5058603;28;20058;-79
2022/07/19 00:33:51;;;;;;;3.25;1.92;;;17.30;74.00;;;;;;5056748;28;20032;-79
2022/07/19 00:36:18;;;;;;;3.22;2.10;;;17.30;73.90;;;;;;5073603;28;20105;-80
2022/07/19 00:38:44;;;;;;;4.57;2.35;;;17.30;74.10;;;;;;5072490;28;20032;-81
2022/07/19 00:41:10;;;;;;;2.08;1.98;;;17.30;74.10;;;;;;5065130;28;20035;-80
2022/07/19 00:43:40;;;;;;;5.72;2.15;;;17.20;74.20;;;;;;5076399;28;20386;-80
2022/07/19 00:46:18;;;;;;;4.03;2.50;;;17.20;74.20;;;;;;5076346;28;20024;-81
2022/07/19 00:48:45;;;;;;;3.13;2.15;;;17.20;74.30;;;;;;5065243;28;20086;-80
2022/07/19 00:51:13;;;;;;;4.38;2.28;;;17.20;74.60;;;;;;5091538;28;20042;-80
2022/07/19 00:53:40;;;;;;;4.35;2.20;;;17.20;74.90;;;;;;5089354;28;20505;-80
2022/07/19 00:56:08;;;;;;;3.97;2.10;;;17.20;74.90;;;;;;5027520;28;20064;-80
2022/07/19 00:58:35;;;;;;;2.20;2.00;;;17.20;75.60;;;;;;5045492;28;20405;-80
2022/07/19 01:01:03;;;;;;;5.70;2.58;;;17.10;76.10;;;;;;5063971;28;20071;-80
2022/07/19 01:03:29;;;;;;;3.22;2.20;;;17.10;76.20;;;;;;5066644;28;20032;-80
2022/07/19 01:05:55;;;;;;;2.92;2.13;;;17.00;75.60;;;;;;5070857;28;20043;-80
2022/07/19 01:08:21;;;;;;;3.15;2.10;;;17.00;75.40;;;;;;5074531;28;20043;-80
2022/07/19 01:10:47;;;;;;;3.38;2.50;;;16.90;75.20;;;;;;5088385;28;20041;-81
2022/07/19 01:13:13;;;;;;;3.08;2.58;;;17.00;75.40;;;;;;5083889;28;20486;-80
2022/07/19 01:15:41;;;;;;;3.55;2.72;;;16.90;75.10;;;;;;5072182;28;20036;-79
2022/07/19 01:18:07;;;;;;;5.65;3.17;;;16.90;75.10;;;;;;5073273;28;20035;-79
2022/07/19 01:20:33;;;;;;;2.97;2.72;;;16.80;75.10;;;;;;5077536;28;20414;-80
2022/07/19 01:22:59;;;;;;;2.40;2.17;;;16.80;75.60;;;;;;5089158;28;20556;-80
2022/07/19 01:25:27;;;;;;;3.53;2.78;;;16.70;75.70;;;;;;5093528;28;20027;-80
2022/07/19 01:27:53;;;;;;;2.78;2.55;;;16.70;75.80;;;;;;5075132;28;20043;-80
2022/07/19 01:30:25;;;;;;;4.63;2.67;;;16.70;75.50;;;;;;5091786;28;20028;-81
2022/07/19 01:32:51;;;;;;;3.33;2.33;;;16.70;75.40;;;;;;5092351;28;20468;-80
2022/07/19 01:35:18;;;;;;;2.63;2.10;;;16.80;75.40;;;;;;5073637;28;20020;-81
2022/07/19 01:37:44;;;;;;;3.17;2.38;;;16.80;75.00;;;;;;5084907;28;20078;-80
2022/07/19 01:40:12;;;;;;;2.60;2.40;;;16.80;75.00;;;;;;5093422;28;20057;-80
2022/07/19 01:42:39;;;;;;;2.85;2.58;;;16.80;75.00;;;;;;5091989;28;20039;-80
2022/07/19 01:45:06;;;;;;;3.63;2.67;;;16.80;75.00;;;;;;5092227;28;20112;-80
2022/07/19 01:47:32;;;;;;;3.08;2.20;;;16.90;75.50;;;;;;5091421;28;20024;-79
2022/07/19 01:49:57;;;;;;;3.22;2.25;;;16.90;75.20;;;;;;5071742;28;20215;-80
2022/07/19 01:52:23;;;;;;;2.30;2.10;;;16.90;74.90;;;;;;5095339;28;20033;-81
2022/07/19 01:54:49;;;;;;;2.30;2.10;;;16.90;74.80;;;;;;5080271;28;20044;-80
2022/07/19 01:57:15;;;;;;;3.58;2.40;;;17.00;74.80;;;;;;5087196;28;20032;-81
2022/07/19 01:59:40;;;;;;;3.47;2.63;;;16.90;75.10;;;;;;5064356;28;20112;-81
2022/07/19 02:02:07;;;;;;;5.80;2.20;;;17.00;75.50;;;;;;5073652;28;20118;-81
2022/07/19 02:04:33;;;;;;;2.42;2.05;;;16.90;74.70;;;;;;5091129;28;20032;-82
2022/07/19 02:06:58;;;;;;;2.65;1.90;;;16.90;74.60;;;;;;5097658;28;20043;-81
2022/07/19 02:09:24;;;;;;;2.78;2.33;;;16.80;74.80;;;;;;5108813;28;20038;-82
2022/07/19 02:11:51;;;;;;;2.33;2.13;;;16.80;74.80;;;;;;5089321;28;20032;-82
2022/07/19 02:14:16;;;;;;;3.13;2.00;;;16.80;74.70;;;;;;5086666;28;20103;-82
2022/07/19 02:16:43;;;;;;;2.45;2.05;;;16.80;75.00;;;;;;5064050;28;20068;-81
2022/07/19 02:19:09;;;;;;;2.08;1.95;;;16.80;75.40;;;;;;5087952;28;20102;-81
2022/07/19 02:21:36;;;;;;;2.78;1.92;;;16.80;75.70;;;;;;5071266;28;20135;-82
2022/07/19 02:24:03;;;;;;;2.17;1.98;;;16.70;76.40;;;;;;5077071;28;20036;-81
2022/07/19 02:26:29;;;;;;;2.33;1.52;;;16.70;77.10;;;;;;5059581;28;20074;-81
2022/07/19 02:28:55;;;;;;;2.63;2.10;;;16.70;77.70;;;;;;5058440;28;20040;-81
2022/07/19 02:31:22;;;;;;;2.10;1.85;;;16.60;77.60;;;;;;5061808;28;20069;-82
2022/07/19 02:33:48;;;;;;;2.55;2.22;;;16.50;77.50;;;;;;5114196;27;20111;-81
2022/07/19 02:36:14;;;;;;;4.63;2.15;;;16.50;77.70;;;;;;5089901;28;20463;-80
2022/07/19 02:38:40;;;;;;;2.70;2.00;;;16.40;77.90;;;;;;5079472;28;20044;-79
2022/07/19 02:41:06;;;;;;;5.43;2.20;;;16.30;77.60;;;;;;5078333;28;20036;-81
2022/07/19 02:43:32;;;;;;;4.72;2.40;;;16.30;77.90;;;;;;5066393;28;20665;-80
2022/07/19 02:45:58;;;;;;;2.38;2.17;;;16.20;78.10;;;;;;5055867;28;20432;-82
2022/07/19 02:48:23;;;;;;;2.88;2.25;;;16.20;78.30;;;;;;5095096;28;20032;-81
2022/07/19 02:50:49;;;;;;;2.45;2.20;;;16.20;78.40;;;;;;5062156;28;20039;-81
2022/07/19 02:53:15;;;;;;;4.43;2.42;;;16.20;78.70;;;;;;5095119;28;20478;-81
2022/07/19 02:55:41;;;;;;;2.22;2.03;;;16.20;78.70;;;;;;5078113;28;20032;-81
2022/07/19 02:58:07;;;;;;;2.30;2.10;;;16.10;78.70;;;;;;5058421;28;20101;-80
2022/07/19 03:00:33;;;;;;;5.28;2.55;;;16.10;78.90;;;;;;5083855;28;20044;-81
2022/07/19 03:03:43;;;;;;;2.58;2.30;;;16.00;79.20;;;;;;5091515;28;20060;-81
2022/07/19 03:05:45;;;;;;;2.65;2.13;;;16.00;79.40;;;;;;5094011;28;20039;-80
2022/07/19 03:08:10;;;;;;;2.85;2.40;;;16.00;79.60;;;;;;5094478;28;20038;-80
2022/07/19 03:10:36;;;;;;;3.65;2.50;;;15.90;79.90;;;;;;5077900;28;20020;-80
2022/07/19 03:13:02;;;;;;;4.20;2.58;;;15.90;80.50;;;;;;5059509;28;20033;-81
2022/07/19 03:15:28;;;;;;;3.88;2.47;;;15.90;81.50;;;;;;5057223;28;20090;-81
2022/07/19 03:17:54;;;;;;;2.80;2.50;;;15.90;80.70;;;;;;5069507;28;20033;-81
2022/07/19 03:20:19;;;;;;;4.85;2.10;;;15.90;80.60;;;;;;5056443;28;20127;-80
2022/07/19 03:22:45;;;;;;;3.83;2.45;;;15.90;81.00;;;;;;5060112;28;20547;-80
2022/07/19 03:25:11;;;;;;;4.30;2.63;;;15.90;81.00;;;;;;5066577;28;20059;-80
2022/07/19 03:27:37;;;;;;;5.95;2.20;;;15.90;80.90;;;;;;5056282;28;20056;-80
2022/07/19 03:30:04;;;;;;;3.30;2.38;;;15.90;80.90;;;;;;5089123;28;20149;-80
2022/07/19 03:32:29;;;;;;;5.10;2.45;;;15.80;81.00;;;;;;5074472;28;20024;-80
2022/07/19 03:34:55;;;;;;;2.83;2.40;;;15.80;81.50;;;;;;5085333;28;20030;-80
2022/07/19 03:37:21;;;;;;;4.72;2.50;;;15.80;81.90;;;;;;5060905;28;20056;-80
2022/07/19 03:39:47;;;;;;;4.95;2.63;;;15.80;82.10;;;;;;5069957;28;20506;-80
2022/07/19 03:42:12;;;;;;;2.15;1.95;;;15.80;81.70;;;;;;5088562;28;20032;-79
2022/07/19 03:44:38;;;;;;;2.92;2.63;;;15.80;81.20;;;;;;5073115;28;20039;-80
2022/07/19 03:47:04;;;;;;;3.25;2.35;;;15.80;81.60;;;;;;5084958;28;20850;-80
2022/07/19 03:49:30;;;;;;;3.85;2.67;;;15.80;82.00;;;;;;5087392;28;20035;-80
2022/07/19 03:51:56;;;;;;;3.75;2.60;;;15.80;82.70;;;;;;5078711;28;20066;-80
2022/07/19 03:54:22;;;;;;;4.53;2.42;;;15.80;82.20;;;;;;5055688;28;20062;-81
2022/07/19 03:56:47;;;;;;;4.45;2.60;;;15.80;82.50;;;;;;5084697;28;20114;-79
2022/07/19 03:59:13;;;;;;;6.68;2.65;;;15.80;82.80;;;;;;5071376;28;20241;-80
2022/07/19 04:01:40;;;;;;;3.60;2.50;;;15.80;82.60;;;;;;5096715;28;20061;-80
2022/07/19 04:04:06;;;;;;;5.10;4.22;;;15.80;82.60;;;;;;5110162;28;20120;-80
2022/07/19 04:06:32;;;;;;;6.13;2.47;;;15.80;82.40;;;;;;5098425;28;20032;-79
2022/07/19 04:08:58;;;;;;;3.85;2.50;;;15.80;82.50;;;;;;5090938;28;20435;-80
2022/07/19 04:11:24;;;;;;;3.65;2.50;;;15.80;82.60;;;;;;5085615;28;20028;-80
2022/07/19 04:13:50;;;;;;;5.28;2.50;;;15.80;83.10;;;;;;5069396;28;20075;-80
2022/07/19 04:16:16;;;;;;;3.78;2.63;;;15.90;83.70;;;;;;5081734;28;20458;-80
2022/07/19 04:18:41;;;;;;;4.75;2.53;;;15.80;83.90;;;;;;5072288;28;20118;-80
2022/07/19 04:21:08;;;;;;;3.22;2.50;;;15.90;84.20;;;;;;5084172;28;20032;-80
2022/07/19 04:23:34;;;;;;;6.25;3.03;;;15.90;84.60;;;;;;5089376;28;20028;-80
2022/07/19 04:26:00;;;;;;;5.18;2.97;;;15.90;84.70;;;;;;5072950;28;20089;-81
2022/07/19 04:28:25;;;;;;;4.07;2.95;;;15.90;84.30;;;;;;5072360;28;20036;-79
2022/07/19 04:30:52;;;;;;;4.00;2.88;;;16.00;84.20;;;;;;5056267;28;20032;-79
2022/07/19 04:33:18;;;;;;;3.50;3.10;;;16.00;84.00;;;;;;5087169;28;20032;-79
2022/07/19 04:35:45;;;;;;;4.85;3.17;;;16.00;83.80;;;;;;5088285;28;20032;-78
2022/07/19 04:38:11;;;;;;;3.53;2.95;;;16.10;84.00;;;;;;5078049;28;20039;-80
2022/07/19 04:40:37;;;;;;;2.83;2.50;;;16.10;84.10;;;;;;5085898;28;20040;-80
2022/07/19 04:43:03;;;;;;;3.55;2.60;;;16.20;84.30;;;;;;5090055;28;20040;-80
2022/07/19 04:45:29;;;;;;;4.93;2.95;;;16.30;83.40;;;;;;5072957;28;20063;-80
2022/07/19 04:47:55;;;;;;;10.60;2.80;;;16.30;82.80;;;;;;5085527;28;20126;-80
2022/07/19 04:50:20;;;;;;;2.75;2.50;;;16.40;82.90;;;;;;5073867;28;20029;-79
2022/07/19 04:52:46;;;;;;;3.97;2.65;;;16.50;82.80;;;;;;5084254;28;20036;-79
2022/07/19 04:55:12;;;;;;;2.90;2.22;;;16.60;82.30;;;;;;5080250;28;20031;-78
2022/07/19 04:57:38;;;;;;;3.45;2.28;;;16.70;82.70;;;;;;5071318;28;20028;-78
2022/07/19 05:00:09;;;;;;;3.45;2.38;;;16.70;82.80;;;;;;5063490;28;20039;-78
2022/07/19 05:02:35;;;;;;;3.42;2.28;;;16.80;84.00;;;;;;5100545;28;20096;-78
2022/07/19 05:05:01;;;;;;;4.40;2.75;;;16.80;84.10;;;;;;5089217;28;20036;-80
2022/07/19 05:07:26;;;;;;;7.55;2.85;;;16.90;83.80;;;;;;5083393;28;20038;-80
2022/07/19 05:09:52;;;;;;;11.30;7.85;;;17.00;82.60;;;;;;5069731;28;20032;-80
2022/07/19 05:12:18;;;;;;;6.35;4.65;;;17.10;81.90;;;;;;5073664;28;20032;-79
2022/07/19 05:14:44;;;;;;;3.85;2.63;;;17.30;80.70;;;;;;5093183;28;20522;-80
2022/07/19 05:17:09;;;;;;;3.88;2.72;;;17.50;79.60;;;;;;5074775;28;20503;-79
2022/07/19 05:19:35;;;;;;;4.28;2.42;;;17.70;79.00;;;;;;5097704;28;20069;-80
2022/07/19 05:22:01;;;;;;;3.88;2.10;;;18.00;78.10;;;;;;5105206;28;20039;-80
2022/07/19 05:24:27;;;;;;;5.18;2.42;;;18.20;77.50;;;;;;5090099;28;20036;-80
2022/07/19 05:26:53;;;;;;;4.70;2.65;;;18.40;76.00;;;;;;5076229;28;20086;-79
2022/07/19 05:29:19;;;;;;;6.55;2.75;;;18.60;75.60;;;;;;5086996;28;20028;-81
2022/07/19 05:31:45;;;;;;;2.88;2.53;;;18.80;74.90;;;;;;5058322;28;20024;-81
2022/07/19 05:34:11;;;;;;;2.65;2.45;;;19.00;74.00;;;;;;5074751;28;20043;-81
2022/07/19 05:36:37;;;;;;;3.58;2.67;;;19.20;72.70;;;;;;5110431;27;20043;-81
2022/07/19 05:39:04;;;;;;;3.63;2.03;;;19.60;71.90;;;;;;5075786;28;20032;-81
2022/07/19 05:41:29;;;;;;;4.25;2.05;;;20.00;70.30;;;;;;5068576;28;20031;-81
2022/07/19 05:43:55;;;;;;;2.65;2.30;;;20.50;69.30;;;;;;5064542;28;20033;-82
2022/07/19 05:46:21;;;;;;;6.55;2.35;;;20.90;68.00;;;;;;5085093;28;20470;-82
2022/07/19 05:48:47;;;;;;;2.78;2.03;;;21.30;66.20;;;;;;5043123;28;20044;-81
2022/07/19 05:51:13;;;;;;;3.95;2.33;;;21.70;65.60;;;;;;5068432;28;20039;-81
2022/07/19 05:53:39;;;;;;;4.93;2.17;;;22.20;64.20;;;;;;5092478;28;20070;-81
2022/07/19 05:56:05;;;;;;;2.75;2.15;;;22.40;61.80;;;;;;5091557;28;20063;-81
2022/07/19 05:58:31;;;;;;;2.40;2.20;;;22.80;61.80;;;;;;5088218;28;20039;-81
2022/07/19 06:03:41;;;;;;;2.35;2.13;;;23.60;59.70;;;;;;5089837;28;20024;-81
2022/07/19 06:06:07;;;;;;;2.17;1.98;;;24.00;58.20;;;;;;5090531;28;20053;-81
2022/07/19 06:08:33;;;;;;;2.70;2.20;;;24.40;57.40;;;;;;5094074;28;20409;-80
2022/07/19 06:10:59;;;;;;;3.40;1.90;;;24.80;55.40;;;;;;5092642;28;20047;-81
2022/07/19 06:13:25;;;;;;;3.25;2.00;;;25.00;56.80;;;;;;5098370;28;20482;-82
2022/07/19 06:15:51;;;;;;;3.58;2.17;;;25.40;54.00;;;;;;5058032;28;20032;-82
2022/07/19 06:18:18;;;;;;;4.55;2.17;;;25.60;53.50;;;;;;5084465;28;20028;-81
2022/07/19 06:20:44;;;;;;;4.25;2.00;;;25.80;53.70;;;;;;5099005;28;20052;-81
2022/07/19 06:23:10;;;;;;;2.45;2.05;;;25.90;53.60;;;;;;5085893;28;20039;-82
2022/07/19 06:25:36;;;;;;;4.00;2.13;;;26.10;53.20;;;;;;5081653;28;20028;-80
2022/07/19 06:28:02;;;;;;;2.28;2.13;;;26.20;51.90;;;;;;5083920;28;20028;-80
2022/07/19 06:30:28;;;;;;;4.18;1.85;;;26.40;51.60;;;;;;5081026;28;20036;-80
2022/07/19 06:32:53;;;;;;;4.78;2.17;;;26.60;52.40;;;;;;5095448;28;20038;-80
2022/07/19 06:35:19;;;;;;;4.10;2.08;;;26.90;51.00;;;;;;5080483;28;20047;-80
2022/07/19 06:37:45;;;;;;;3.30;2.35;;;27.30;51.00;;;;;;5079111;28;20042;-80
2022/07/19 06:40:11;;;;;;;2.22;2.03;;;27.40;48.90;;;;;;5096455;28;20035;-80
2022/07/19 06:42:37;;;;;;;3.40;2.20;;;27.60;49.10;;;;;;5098292;28;20032;-80
2022/07/19 06:45:04;;;;;;;5.30;2.28;;;27.80;50.20;;;;;;5056118;28;20092;-80
2022/07/19 06:47:29;;;;;;;3.80;2.70;;;28.20;49.90;;;;;;5090932;28;20035;-80
2022/07/19 06:49:55;;;;;;;4.43;1.92;;;28.50;48.20;;;;;;5079651;28;20043;-80
2022/07/19 06:52:21;;;;;;;2.00;1.90;;;28.90;47.10;;;;;;5095285;28;20024;-80
2022/07/19 06:54:47;;;;;;;1.92;1.80;;;29.20;47.50;;;;;;5105011;28;20381;-80
2022/07/19 06:57:13;;;;;;;4.22;2.03;;;29.40;47.70;;;;;;5073670;28;20090;-80
2022/07/19 06:59:38;;;;;;;2.70;1.88;;;29.80;46.70;;;;;;5085063;28;20447;-81
2022/07/19 07:02:04;;;;;;;3.30;2.05;;;30.20;46.00;;;;;;5108816;27;20059;-80
2022/07/19 07:04:31;;;;;;;2.92;1.60;;;30.30;43.90;;;;;;5094021;28;20089;-80
2022/07/19 07:06:57;;;;;;;5.25;1.80;;;30.40;44.20;;;;;;5086242;28;20070;-78
2022/07/19 07:09:23;;;;;;;2.80;1.92;;;30.40;44.30;;;;;;5102944;27;20420;-78
2022/07/19 07:11:49;;;;;;;3.75;1.63;;;30.60;43.00;;;;;;5106450;28;20023;-78
2022/07/19 07:14:14;;;;;;;2.38;1.77;;;30.60;44.80;;;;;;5106145;28;20474;-78
2022/07/19 07:16:40;;;;;;;2.95;1.90;;;31.10;44.30;;;;;;5081983;28;20032;-79
2022/07/19 07:19:08;;;;;;;3.42;1.80;;;30.90;42.60;;;;;;5081734;28;20407;-78
2022/07/19 07:21:35;;;;;;;2.20;1.80;;;30.90;42.50;;;;;;5094204;28;20036;-79
2022/07/19 07:24:01;;;;;;;5.47;1.90;;;31.30;42.30;;;;;;5084302;28;20370;-80
2022/07/19 07:26:27;;;;;;;2.20;2.00;;;31.10;41.70;;;;;;5092051;28;20028;-80
2022/07/19 07:28:53;;;;;;;2.40;1.77;;;31.40;41.80;;;;;;5073558;28;20081;-81
2022/07/19 07:31:19;;;;;;;2.28;1.80;;;31.50;41.90;;;;;;5077003;28;20024;-81
2022/07/19 07:33:45;;;;;;;2.40;1.90;;;31.60;43.20;;;;;;5090552;28;20135;-80
2022/07/19 07:36:11;;;;;;;2.22;1.77;;;31.90;41.40;;;;;;5085505;28;20544;-80
2022/07/19 07:38:37;;;;;;;2.95;1.90;;;32.00;40.70;;;;;;5071242;28;20113;-81
2022/07/19 07:41:04;;;;;;;2.33;1.77;;;32.00;41.20;;;;;;5089000;28;20059;-80
2022/07/19 07:43:29;;;;;;;2.63;1.70;;;32.20;41.30;;;;;;5071496;28;20470;-81
2022/07/19 07:45:55;;;;;;;1.85;1.60;;;32.50;41.10;;;;;;5087904;28;20032;-80
2022/07/19 07:48:21;;;;;;;2.50;1.77;;;32.80;40.60;;;;;;5081329;28;20039;-80
2022/07/19 07:50:47;;;;;;;2.20;1.80;;;33.20;38.60;;;;;;5077747;28;20110;-83
2022/07/19 07:53:12;;;;;;;2.05;1.63;;;33.40;38.70;;;;;;5096922;28;20062;-82
2022/07/19 07:55:41;;;;;;;2.35;2.05;;;33.50;38.20;;;;;;5065488;28;20031;-82
2022/07/19 07:58:08;;;;;;;2.67;1.90;;;33.50;38.20;;;;;;5060597;28;20046;-81
2022/07/19 08:00:35;;;;;;;3.30;1.92;;;33.70;37.70;;;;;;5070722;28;20115;-82
2022/07/19 08:03:01;;;;;;;2.90;1.80;;;33.40;39.40;;;;;;5089770;28;20040;-82
2022/07/19 08:05:27;;;;;;;1.58;1.30;;;33.40;39.00;;;;;;5082193;28;20406;-82
2022/07/19 08:07:53;;;;;;;3.10;1.95;;;33.20;38.50;;;;;;5062733;28;20070;-82
2022/07/19 08:10:23;;;;;;;9.45;2.65;;;33.00;40.40;;;;;;5089298;28;20039;-81
2022/07/19 08:12:49;;;;;;;4.07;1.60;;;32.40;38.90;;;;;;5091364;28;20032;-81
2022/07/19 08:15:15;;;;;;;3.45;1.70;;;32.30;41.30;;;;;;5083090;28;20092;-81
2022/07/19 08:17:41;;;;;;;3.30;1.60;;;32.10;40.50;;;;;;5077360;28;20067;-81
2022/07/19 08:20:07;;;;;;;4.53;2.85;;;31.80;41.40;;;;;;5083982;28;20115;-81
2022/07/19 08:22:33;;;;;;;4.15;2.28;;;31.50;43.40;;;;;;5098951;28;20565;-81
2022/07/19 08:24:59;;;;;;;1.85;1.67;;;31.30;41.60;;;;;;5088406;28;20036;-81
2022/07/19 08:27:25;;;;;;;2.38;1.70;;;31.10;41.70;;;;;;5085964;28;20040;-81
2022/07/19 08:29:51;;;;;;;4.63;1.70;;;31.00;42.70;;;;;;5077098;28;20038;-81
2022/07/19 08:32:17;;;;;;;5.72;2.20;;;30.80;42.80;;;;;;5097489;28;20034;-81
2022/07/19 08:34:42;;;;;;;1.85;1.50;;;30.80;41.80;;;;;;5083374;28;20136;-79
2022/07/19 08:37:08;;;;;;;3.20;1.52;;;30.70;41.70;;;;;;5085291;28;20608;-81
2022/07/19 08:39:34;;;;;;;2.92;1.33;;;30.60;41.60;;;;;;5071511;28;20036;-81
2022/07/19 08:42:00;;;;;;;3.95;1.70;;;30.50;41.30;;;;;;5080720;28;20040;-82
2022/07/19 08:44:27;;;;;;;2.85;1.63;;;30.30;42.80;;;;;;5069823;28;20494;-81
2022/07/19 08:46:54;;;;;;;3.90;1.60;;;30.20;44.20;;;;;;5090924;28;20040;-81
2022/07/19 08:49:20;;;;;;;2.70;1.52;;;30.30;44.80;;;;;;5080518;28;20443;-80
2022/07/19 08:51:48;;;;;;;3.15;1.80;;;30.40;42.10;;;;;;5096262;28;20739;-81
2022/07/19 08:54:15;;;;;;;3.08;1.65;;;30.50;43.00;;;;;;5102527;28;20027;-80
2022/07/19 08:59:25;;;;;;;1.83;1.40;;;30.60;41.40;;;;;;5100114;28;20040;-78
2022/07/19 09:01:51;;;;;;;1.67;1.58;;;30.80;42.40;;;;;;5086308;28;20032;-81
2022/07/19 09:04:20;;;;;;;1.75;1.65;;;31.10;41.60;;;;;;5083843;28;20067;-81
2022/07/19 09:06:49;;;;;;;4.60;1.58;;;31.10;41.60;;;;;;5096631;28;20016;-81
2022/07/19 09:09:26;;;;;;;2.92;1.40;;;31.30;39.20;;;;;;5096335;28;20075;-82
2022/07/19 09:11:53;;;;;;;6.20;1.50;;;31.20;39.90;;;;;;5103742;28;20028;-82
2022/07/19 09:14:25;;;;;;;1.92;1.30;;;31.20;40.10;;;;;;5099278;28;20076;-83
2022/07/19 09:17:01;;;;;;;3.08;1.77;;;31.10;39.00;;;;;;5100456;28;20036;-82
2022/07/19 09:19:29;;;;;;;3.53;1.52;;;31.00;40.50;;;;;;5106108;28;20028;-82
2022/07/19 09:22:02;;;;;;;1.77;1.67;;;30.80;39.40;;;;;;5055932;28;20036;-80
2022/07/19 09:24:30;;;;;;;2.55;1.48;;;30.60;39.50;;;;;;5101430;28;20087;-80
2022/07/19 09:27:16;;;;;;;1.92;1.60;;;30.50;40.50;;;;;;5111001;28;20032;-81
2022/07/19 09:29:44;;;;;;;4.28;1.80;;;30.40;40.50;;;;;;5093794;28;20099;-81
2022/07/19 09:32:19;;;;;;;2.95;1.77;;;30.40;43.00;;;;;;5111522;28;20104;-82
2022/07/19 09:34:52;;;;;;;4.85;1.77;;;30.40;42.10;;;;;;5086180;28;20410;-81
2022/07/19 09:37:27;;;;;;;2.15;1.80;;;30.50;41.70;;;;;;5097888;28;20036;-82
2022/07/19 09:40:02;;;;;;;1.98;1.60;;;30.50;40.00;;;;;;5095958;28;20042;-81
2022/07/19 09:42:39;;;;;;;2.35;1.73;;;30.50;41.00;;;;;;5077109;28;20382;-82
2022/07/19 09:45:08;;;;;;;1.88;1.77;;;30.40;40.60;;;;;;5109671;28;20040;-81
2022/07/19 09:47:39;;;;;;;5.07;1.50;;;30.40;39.40;;;;;;5083018;28;20038;-81
2022/07/19 09:50:12;;;;;;;4.72;1.80;;;30.40;40.90;;;;;;5112473;28;20385;-81
2022/07/19 09:52:39;;;;;;;6.03;1.42;;;30.30;40.30;;;;;;5107816;28;20058;-81
2022/07/19 09:55:07;;;;;;;2.33;1.73;;;30.30;41.20;;;;;;5110491;28;20394;-81
2022/07/19 09:57:38;;;;;;;6.68;1.67;;;30.30;41.20;;;;;;5098813;28;20466;-81
2022/07/19 10:00:05;;;;;;;5.38;1.90;;;30.30;39.10;;;;;;5080767;28;20036;-81
2022/07/19 10:02:36;;;;;;;5.95;1.45;;;30.40;39.40;;;;;;5084114;28;20079;-80
2022/07/19 10:05:03;;;;;;;4.60;2.17;;;30.30;38.70;;;;;;5098676;28;20898;-79
2022/07/19 10:07:31;;;;;;;4.72;1.90;;;30.40;39.80;;;;;;5103081;28;20042;-80
2022/07/19 10:10:01;;;;;;;2.08;1.55;;;30.40;38.60;;;;;;5108476;28;20029;-81
2022/07/19 10:12:28;;;;;;;2.28;1.55;;;30.40;38.80;;;;;;5098551;28;20031;-82
2022/07/19 10:14:55;;;;;;;3.22;1.63;;;30.40;38.90;;;;;;5083240;28;20062;-81
2022/07/19 10:18:09;;;;;;;3.78;1.73;;;30.40;39.30;;;;;;5100695;28;20114;-82
2022/07/19 10:20:36;;;;;;;1.70;1.48;;;30.50;39.30;;;;;;5099264;28;20024;-81
2022/07/19 10:23:03;;;;;;;1.90;1.50;;;30.60;39.80;;;;;;5093677;28;20029;-80
2022/07/19 10:25:39;;;;;;;2.33;1.70;;;30.50;38.80;;;;;;5084298;28;20410;-79
2022/07/19 10:28:18;;;;;;;3.97;1.58;;;30.60;38.80;;;;;;5095551;28;20267;-79
2022/07/19 10:30:44;;;;;;;3.55;1.40;;;30.60;38.10;;;;;;5090424;28;20528;-80
2022/07/19 10:33:32;;;;;;;2.75;1.65;;;30.60;38.20;;;;;;5077270;28;20032;-80
2022/07/19 10:36:19;;;;;;;6.03;1.70;;;30.60;38.90;;;;;;5094418;28;20331;-81
2022/07/19 10:39:20;;;;;;;3.80;1.60;;;30.70;36.90;;;;;;5093376;28;20115;-80
2022/07/19 10:42:18;;;;;;;5.72;1.70;;;30.80;36.60;;;;;;5086809;28;20062;-80
2022/07/19 10:44:59;;;;;;;3.20;1.75;;;30.90;35.70;;;;;;5086566;28;20046;-81
2022/07/19 10:47:40;;;;;;;4.90;1.83;;;30.90;36.60;;;;;;5088870;28;20040;-81
2022/07/19 10:50:14;;;;;;;6.28;2.25;;;30.90;35.40;;;;;;5086946;28;20028;-79
2022/07/19 10:52:42;;;;;;;4.03;1.77;;;30.90;34.80;;;;;;5093340;28;20059;-81
2022/07/19 10:55:17;;;;;;;2.85;1.70;;;30.90;35.20;;;;;;5075056;28;20027;-80
2022/07/19 10:57:45;;;;;;;1.85;1.33;;;30.90;34.90;;;;;;5089052;28;20111;-81
2022/07/19 11:00:24;;;;;;;2.13;1.48;;;30.80;35.00;;;;;;5093862;28;20036;-81
2022/07/19 11:02:51;;;;;;;2.42;1.40;;;30.80;39.60;;;;;;5085148;28;20044;-81
2022/07/19 11:05:24;;;;;;;3.15;1.67;;;30.80;36.60;;;;;;5065166;28;20131;-80
2022/07/19 11:07:52;;;;;;;6.47;2.05;;;31.00;34.90;;;;;;5091335;28;20048;-81
2022/07/19 11:10:26;;;;;;;3.80;1.75;;;31.00;35.50;;;;;;5057565;28;20043;-80
2022/07/19 11:12:53;;;;;;;5.57;1.48;;;31.00;35.70;;;;;;5051903;28;20472;-81
2022/07/19 11:15:19;;;;;;;3.58;1.73;;;31.00;34.80;;;;;;5092677;28;20099;-81
2022/07/19 11:18:06;;;;;;;2.00;1.25;;;31.00;34.00;;;;;;5079128;28;20108;-80
2022/07/19 11:20:36;;;;;;;2.28;1.50;;;31.00;34.90;;;;;;5087283;28;20044;-80
2022/07/19 11:23:04;;;;;;;2.67;1.73;;;31.10;35.90;;;;;;5064952;28;20036;-80
2022/07/19 11:25:32;;;;;;;1.70;1.40;;;31.10;35.00;;;;;;5063172;28;20092;-80
2022/07/19 11:28:00;;;;;;;2.53;1.63;;;31.20;36.30;;;;;;5098799;28;20044;-80
2022/07/19 11:30:29;;;;;;;5.05;1.85;;;31.20;37.90;;;;;;5091101;28;20024;-80
2022/07/19 11:33:00;;;;;;;3.95;1.45;;;31.30;38.30;;;;;;5080358;28;20035;-81
2022/07/19 11:35:26;;;;;;;6.30;1.83;;;31.30;37.80;;;;;;5041077;28;20060;-81
2022/07/19 11:37:54;;;;;;;3.22;1.70;;;31.40;36.70;;;;;;5090561;28;20043;-80
2022/07/19 11:40:20;;;;;;;2.40;1.48;;;31.40;35.70;;;;;;5051464;28;20039;-81
2022/07/19 11:42:48;;;;;;;4.75;2.10;;;31.50;34.90;;;;;;5091596;28;20028;-82
2022/07/19 11:45:21;;;;;;;2.45;2.05;;;31.60;34.60;;;;;;5090930;28;20032;-80
2022/07/19 11:47:53;;;;;;;3.65;1.75;;;31.70;34.20;;;;;;5093085;28;20067;-81
2022/07/19 11:50:21;;;;;;;3.25;1.80;;;31.80;36.60;;;;;;5057587;28;20089;-81
2022/07/19 11:52:51;;;;;;;5.10;1.80;;;31.90;34.70;;;;;;5071862;28;20028;-80
2022/07/19 11:55:21;;;;;;;4.63;1.60;;;32.00;34.20;;;;;;5077347;28;20031;-81
2022/07/19 11:57:48;;;;;;;3.08;1.67;;;32.00;35.10;;;;;;5095239;28;20051;-80
2022/07/19 12:00:15;;;;;;;3.03;1.50;;;32.00;33.50;;;;;;5090619;28;20490;-81
2022/07/19 12:02:56;;;;;;;2.95;1.67;;;31.90;32.90;;;;;;5094950;28;20099;-80
2022/07/19 12:05:22;;;;;;;2.85;1.60;;;31.90;35.40;;;;;;5088917;28;20031;-82
2022/07/19 12:07:49;;;;;;;3.45;1.67;;;32.10;37.00;;;;;;5071248;28;20036;-81
2022/07/19 12:10:43;;;;;;;3.65;1.60;;;32.20;34.40;;;;;;5053277;28;20129;-82
2022/07/19 12:13:15;;;;;;;6.13;1.83;;;32.40;35.30;;;;;;5070830;28;20056;-81
2022/07/19 12:15:53;;;;;;;2.33;1.90;;;32.40;33.60;;;;;;5067488;28;20031;-80
2022/07/19 12:18:42;;;;;;;4.53;1.73;;;32.60;34.10;;;;;;5063197;28;20028;-81
2022/07/19 12:21:18;;;;;;;2.95;1.45;;;32.60;31.90;;;;;;5075464;28;20069;-81
2022/07/19 12:24:09;;;;;;;3.28;1.88;;;32.70;31.30;;;;;;5082216;28;20419;-81
2022/07/19 12:26:36;;;;;;;2.63;1.65;;;32.60;32.90;;;;;;5090960;28;20047;-81
2022/07/19 12:29:15;;;;;;;2.95;1.60;;;32.70;35.30;;;;;;5094794;28;20508;-81
2022/07/19 12:31:46;;;;;;;1.85;1.73;;;32.80;34.60;;;;;;5101274;28;20033;-82
2022/07/19 12:34:13;;;;;;;3.60;1.83;;;32.90;32.30;;;;;;5059401;28;20067;-82
2022/07/19 12:36:39;;;;;;;3.97;1.65;;;33.10;33.20;;;;;;5072316;28;20031;-81
2022/07/19 12:39:05;;;;;;;4.40;1.67;;;33.20;32.60;;;;;;5089998;28;20036;-81
2022/07/19 12:41:31;;;;;;;6.22;1.80;;;33.30;32.60;;;;;;5073877;28;20027;-82
2022/07/19 12:43:56;;;;;;;5.97;1.75;;;33.50;31.10;;;;;;5058360;28;20115;-82
2022/07/19 12:46:22;;;;;;;1.98;1.77;;;33.70;31.10;;;;;;5076344;28;20085;-81
2022/07/19 12:48:48;;;;;;;4.20;2.05;;;33.90;30.50;;;;;;5080732;28;20036;-81
2022/07/19 12:51:13;;;;;;;3.85;1.85;;;34.00;31.10;;;;;;5060974;28;20033;-81
2022/07/19 12:53:39;;;;;;;4.70;2.00;;;34.20;30.10;;;;;;5099585;28;20036;-84
2022/07/19 12:56:05;;;;;;;4.05;2.00;;;34.40;30.20;;;;;;5084940;28;20077;-81
2022/07/19 13:01:16;;;;;;;4.35;2.10;;;34.40;30.00;;;;;;5093642;28;20122;-82